createdAt,value
2022-11-05T00:00:33.457Z,13.37
2022-11-05T00:03:18.412Z,13.97
2022-11-05T00:06:07.278Z,13.90
2022-11-05T00:08:52.316Z,12.77
2022-11-05T00:11:18.795Z,12.13
2022-11-05T00:14:04.034Z,12.10
2022-11-05T00:16:45.800Z,12.30
2022-11-05T00:19:13.420Z,12.43
2022-11-05T00:21:58.276Z,12.17
2022-11-05T00:24:43.304Z,12.00
2022-11-05T00:27:09.784Z,11.17
2022-11-05T00:29:36.298Z,12.33
2022-11-05T00:32:02.860Z,11.20
2022-11-05T00:34:29.341Z,11.33
2022-11-05T00:36:56.220Z,10.10
2022-11-05T00:39:22.674Z,9.70
2022-11-05T00:42:09.092Z,9.83
2022-11-05T00:44:54.289Z,9.63
2022-11-05T00:47:39.061Z,9.10
2022-11-05T00:50:05.769Z,8.70
2022-11-05T00:52:50.649Z,9.20
2022-11-05T00:55:17.148Z,10.07
2022-11-05T00:57:43.589Z,11.30
2022-11-05T01:00:11.218Z,10.57
2022-11-05T01:02:37.917Z,10.07
2022-11-05T01:05:04.705Z,10.20
2022-11-05T01:07:31.469Z,11.40
2022-11-05T01:09:58.003Z,11.90
2022-11-05T01:12:24.503Z,11.10
2022-11-05T01:14:50.951Z,10.97
2022-11-05T01:17:17.675Z,10.40
2022-11-05T01:19:44.127Z,10.60
2022-11-05T01:22:10.584Z,9.70
2022-11-05T01:24:37.028Z,8.47
2022-11-05T01:27:03.569Z,7.90
2022-11-05T01:29:30.021Z,5.50
2022-11-05T01:31:56.557Z,6.63
2022-11-05T01:34:23.147Z,5.63
2022-11-05T01:36:49.658Z,5.67
2022-11-05T01:39:16.256Z,5.93
2022-11-05T01:41:42.759Z,6.00
2022-11-05T01:44:47.870Z,5.60
2022-11-05T01:47:28.386Z,5.80
2022-11-05T01:49:55.701Z,6.13
2022-11-05T01:52:24.129Z,5.93
2022-11-05T01:54:50.875Z,5.90
2022-11-05T01:57:17.584Z,6.17
2022-11-05T01:59:48.364Z,5.60
2022-11-05T02:02:15.746Z,5.43
2022-11-05T02:04:53.952Z,5.67
2022-11-05T02:07:21.153Z,4.50
2022-11-05T02:10:01.059Z,5.00
2022-11-05T02:12:28.972Z,4.37
2022-11-05T02:14:57.057Z,4.57
2022-11-05T02:17:29.960Z,3.73
2022-11-05T02:20:22.540Z,3.83
2022-11-05T02:23:07.517Z,3.67
2022-11-05T02:25:55.115Z,3.60
2022-11-05T02:28:43.404Z,3.63
2022-11-05T02:31:23.431Z,3.53
2022-11-05T02:33:56.966Z,3.13
2022-11-05T02:36:43.320Z,3.07
2022-11-05T02:39:28.453Z,2.50
2022-11-05T02:42:10.134Z,2.43
2022-11-05T02:44:58.513Z,2.80
2022-11-05T02:48:06.603Z,2.43
2022-11-05T02:51:04.607Z,2.60
2022-11-05T02:53:45.298Z,2.67
2022-11-05T02:56:24.524Z,2.67
2022-11-05T02:58:51.028Z,3.07
2022-11-05T03:01:17.624Z,3.20
2022-11-05T03:03:50.160Z,2.73
2022-11-05T03:06:41.431Z,2.90
2022-11-05T03:09:19.941Z,3.37
2022-11-05T03:12:18.886Z,2.60
2022-11-05T03:15:06.540Z,2.93
2022-11-05T03:17:58.020Z,2.40
2022-11-05T03:20:54.539Z,2.70
2022-11-05T03:23:40.643Z,2.70
2022-11-05T03:26:17.595Z,2.40
2022-11-05T03:28:50.482Z,2.53
2022-11-05T03:31:19.416Z,2.40
2022-11-05T03:33:48.051Z,2.90
2022-11-05T03:36:23.292Z,2.10
2022-11-05T03:38:53.149Z,2.30
2022-11-05T03:41:21.956Z,1.80
2022-11-05T03:43:53.988Z,2.00
2022-11-05T03:46:34.334Z,2.23
2022-11-05T03:49:04.155Z,1.60
2022-11-05T03:51:49.374Z,2.07
2022-11-05T03:54:15.957Z,1.70
2022-11-05T03:57:07.319Z,1.50
2022-11-05T03:59:40.814Z,1.90
2022-11-05T04:02:07.610Z,1.87
2022-11-05T04:04:34.249Z,1.87
2022-11-05T04:07:19.129Z,2.23
2022-11-05T04:10:03.962Z,2.20
2022-11-05T04:12:49.125Z,1.90
2022-11-05T04:15:15.700Z,2.10
2022-11-05T04:17:42.184Z,2.00
2022-11-05T04:20:27.300Z,2.20
2022-11-05T04:23:20.142Z,2.20
2022-11-05T04:25:46.599Z,2.00
2022-11-05T04:28:13.976Z,2.20
2022-11-05T04:30:41.352Z,2.13
2022-11-05T04:33:15.816Z,2.57
2022-11-05T04:35:47.947Z,2.27
2022-11-05T04:38:19.211Z,2.17
2022-11-05T04:40:46.959Z,2.37
2022-11-05T04:43:15.541Z,2.50
2022-11-05T04:45:42.791Z,2.30
2022-11-05T04:48:09.833Z,2.37
2022-11-05T04:50:36.541Z,2.70
2022-11-05T04:53:03.014Z,2.67
2022-11-05T04:55:29.701Z,2.87
2022-11-05T04:57:56.403Z,2.90
2022-11-05T05:00:24.363Z,2.33
2022-11-05T05:02:50.973Z,2.70
2022-11-05T05:05:17.758Z,2.57
2022-11-05T05:07:44.440Z,2.50
2022-11-05T05:10:11.651Z,3.10
2022-11-05T05:12:38.327Z,2.50
2022-11-05T05:15:05.144Z,2.53
2022-11-05T05:17:31.682Z,2.47
2022-11-05T05:20:16.472Z,2.60
2022-11-05T05:22:42.912Z,2.50
2022-11-05T05:25:09.404Z,2.20
2022-11-05T05:27:35.909Z,2.40
2022-11-05T05:30:02.455Z,2.23
2022-11-05T05:32:28.878Z,2.40
2022-11-05T05:34:55.437Z,2.67
2022-11-05T05:37:21.928Z,2.17
2022-11-05T05:39:48.529Z,2.40
2022-11-05T05:42:15.479Z,2.53
2022-11-05T05:44:42.036Z,2.47
2022-11-05T05:47:08.628Z,2.80
2022-11-05T05:49:35.076Z,2.80
2022-11-05T05:52:01.800Z,2.77
2022-11-05T05:54:32.684Z,2.60
2022-11-05T05:57:00.763Z,3.00
2022-11-05T05:59:27.312Z,3.50
2022-11-05T06:01:53.879Z,3.13
2022-11-05T06:04:20.685Z,3.20
2022-11-05T06:06:47.163Z,3.40
2022-11-05T06:09:14.384Z,3.03
2022-11-05T06:11:41.533Z,2.60
2022-11-05T06:14:14.001Z,2.20
2022-11-05T06:16:40.467Z,2.73
2022-11-05T06:19:07.545Z,2.60
2022-11-05T06:21:34.345Z,2.43
2022-11-05T06:24:02.327Z,2.43
2022-11-05T06:26:28.963Z,2.57
2022-11-05T06:28:55.413Z,2.80
2022-11-05T06:31:22.210Z,3.13
2022-11-05T06:33:48.834Z,3.07
2022-11-05T06:36:17.023Z,2.97
2022-11-05T06:38:43.533Z,2.73
2022-11-05T06:41:10.660Z,2.97
2022-11-05T06:43:38.129Z,3.20
2022-11-05T06:46:04.975Z,3.40
2022-11-05T06:48:31.624Z,3.10
2022-11-05T06:50:58.112Z,3.77
2022-11-05T06:53:25.221Z,3.77
2022-11-05T06:55:51.883Z,3.77
2022-11-05T06:58:18.496Z,3.60
2022-11-05T07:00:45.445Z,3.80
2022-11-05T07:03:13.005Z,5.30
2022-11-05T07:05:48.561Z,5.83
2022-11-05T07:08:15.508Z,5.87
2022-11-05T07:10:42.001Z,6.77
2022-11-05T07:13:09.099Z,7.80
2022-11-05T07:15:37.171Z,6.53
2022-11-05T07:18:05.145Z,6.80
2022-11-05T07:20:34.105Z,6.83
2022-11-05T07:23:03.030Z,6.70
2022-11-05T07:25:31.435Z,6.00
2022-11-05T07:27:58.238Z,5.33
2022-11-05T07:30:24.689Z,5.50
2022-11-05T07:32:51.428Z,6.50
2022-11-05T07:35:17.935Z,6.50
2022-11-05T07:37:46.482Z,6.37
2022-11-05T07:40:14.588Z,6.90
2022-11-05T07:42:45.983Z,6.60
2022-11-05T07:45:13.017Z,6.37
2022-11-05T07:47:45.784Z,5.90
2022-11-05T07:50:12.412Z,6.43
2022-11-05T07:52:38.870Z,6.07
2022-11-05T07:55:05.925Z,5.70
2022-11-05T07:57:32.351Z,5.73
2022-11-05T07:59:58.754Z,5.50
2022-11-05T08:02:25.472Z,5.80
2022-11-05T08:04:52.004Z,6.43
2022-11-05T08:07:18.448Z,6.10
2022-11-05T08:09:44.871Z,5.80
2022-11-05T08:12:11.321Z,5.87
2022-11-05T08:14:37.767Z,6.03
2022-11-05T08:17:04.332Z,6.10
2022-11-05T08:19:31.013Z,6.13
2022-11-05T08:21:57.489Z,6.20
2022-11-05T08:24:24.014Z,6.27
2022-11-05T08:26:50.539Z,5.57
2022-11-05T08:29:17.435Z,5.07
2022-11-05T08:31:43.897Z,5.23
2022-11-05T08:34:10.376Z,5.43
2022-11-05T08:36:36.867Z,5.70
2022-11-05T08:39:03.417Z,6.03
2022-11-05T08:41:29.901Z,5.90
2022-11-05T08:43:56.494Z,6.50
2022-11-05T08:46:22.986Z,7.40
2022-11-05T08:48:49.942Z,7.27
2022-11-05T08:51:16.479Z,7.37
2022-11-05T08:53:42.929Z,7.10
2022-11-05T08:56:09.449Z,6.67
2022-11-05T08:58:36.062Z,7.40
2022-11-05T09:01:05.439Z,6.37
2022-11-05T09:03:32.301Z,6.17
2022-11-05T09:05:58.803Z,6.20
2022-11-05T09:08:25.336Z,5.60
2022-11-05T09:10:51.815Z,5.20
2022-11-05T09:13:20.109Z,4.37
2022-11-05T09:15:48.674Z,5.10
2022-11-05T09:18:16.229Z,4.17
2022-11-05T09:20:43.175Z,3.80
2022-11-05T09:23:12.197Z,4.13
2022-11-05T09:25:38.867Z,3.30
2022-11-05T09:28:16.764Z,3.67
2022-11-05T09:30:49.445Z,4.33
2022-11-05T09:33:18.228Z,4.23
2022-11-05T09:35:45.354Z,4.07
2022-11-05T09:38:11.880Z,3.47
2022-11-05T09:40:51.133Z,3.40
2022-11-05T09:43:31.216Z,3.70
2022-11-05T09:46:00.817Z,3.40
2022-11-05T09:48:31.035Z,3.43
2022-11-05T09:50:58.257Z,3.10
2022-11-05T09:53:25.483Z,3.60
2022-11-05T09:55:56.372Z,3.63
2022-11-05T09:58:43.569Z,3.40
2022-11-05T10:01:22.055Z,3.37
2022-11-05T10:03:53.435Z,4.07
2022-11-05T10:06:23.502Z,3.93
2022-11-05T10:08:56.657Z,3.20
2022-11-05T10:11:34.194Z,3.40
2022-11-05T10:14:08.602Z,3.43
2022-11-05T10:16:43.264Z,3.20
2022-11-05T10:19:16.762Z,3.00
2022-11-05T10:24:30.135Z,2.67
2022-11-05T10:26:57.682Z,2.60
2022-11-05T10:29:29.837Z,3.30
2022-11-05T10:31:58.046Z,3.23
2022-11-05T10:34:30.672Z,3.17
2022-11-05T10:36:57.311Z,3.27
2022-11-05T10:39:24.931Z,4.03
2022-11-05T10:42:00.520Z,3.73
2022-11-05T10:44:57.750Z,3.33
2022-11-05T10:48:01.401Z,3.10
2022-11-05T10:50:29.563Z,2.90
2022-11-05T10:52:59.568Z,2.80
2022-11-05T10:55:36.349Z,3.27
2022-11-05T10:58:17.872Z,3.43
2022-11-05T11:00:59.501Z,3.53
2022-11-05T11:03:34.963Z,3.60
2022-11-05T11:06:12.134Z,3.97
2022-11-05T11:08:38.652Z,4.00
2022-11-05T11:11:10.340Z,3.70
2022-11-05T11:13:58.086Z,3.70
2022-11-05T11:16:28.080Z,3.77
2022-11-05T11:19:00.892Z,3.20
2022-11-05T11:21:29.576Z,3.27
2022-11-05T11:23:56.043Z,3.27
2022-11-05T11:26:25.779Z,3.30
2022-11-05T11:28:58.932Z,3.70
2022-11-05T11:31:28.474Z,3.30
2022-11-05T11:34:02.443Z,3.17
2022-11-05T11:36:48.490Z,2.90
2022-11-05T11:39:20.063Z,3.33
2022-11-05T11:41:51.721Z,3.63
2022-11-05T11:44:27.012Z,4.13
2022-11-05T11:46:56.427Z,4.43
2022-11-05T11:49:30.443Z,4.20
2022-11-05T11:52:04.290Z,5.67
2022-11-05T11:54:33.312Z,5.70
2022-11-05T11:56:59.754Z,6.67
2022-11-05T11:59:53.886Z,7.40
2022-11-05T12:02:33.808Z,7.30
2022-11-05T12:05:15.246Z,6.73
2022-11-05T12:08:12.626Z,6.70
2022-11-05T12:11:01.607Z,7.07
2022-11-05T12:13:51.053Z,7.13
2022-11-05T12:16:38.671Z,7.70
2022-11-05T12:19:25.435Z,7.53
2022-11-05T12:22:08.615Z,7.73
2022-11-05T12:25:08.574Z,7.50
2022-11-05T12:28:07.442Z,8.50
2022-11-05T12:30:48.097Z,9.80
2022-11-05T12:33:27.247Z,9.60
2022-11-05T12:36:03.302Z,10.90
2022-11-05T12:38:52.985Z,10.53
2022-11-05T12:42:00.066Z,10.70
2022-11-05T12:45:03.145Z,11.40
2022-11-05T12:47:51.001Z,11.00
2022-11-05T12:50:32.511Z,10.53
2022-11-05T12:53:37.905Z,10.93
2022-11-05T12:56:12.377Z,10.70
2022-11-05T12:58:44.266Z,10.50
2022-11-05T13:01:19.680Z,9.80
2022-11-05T13:04:00.778Z,10.03
2022-11-05T13:06:40.401Z,9.30
2022-11-05T13:09:19.770Z,9.67
2022-11-05T13:12:07.435Z,8.40
2022-11-05T13:14:43.238Z,9.43
2022-11-05T13:17:23.370Z,9.17
2022-11-05T13:19:57.904Z,9.77
2022-11-05T13:22:41.416Z,9.80
2022-11-05T13:25:30.542Z,10.63
2022-11-05T13:28:15.571Z,10.23
2022-11-05T13:30:48.639Z,9.93
2022-11-05T13:33:24.933Z,10.03
2022-11-05T13:36:27.412Z,9.23
2022-11-05T13:39:06.925Z,9.87
2022-11-05T13:41:52.311Z,11.03
2022-11-05T13:44:39.996Z,10.27
2022-11-05T13:47:27.882Z,11.40
2022-11-05T13:50:22.460Z,11.67
2022-11-05T13:53:05.870Z,11.10
2022-11-05T13:55:47.555Z,10.17
2022-11-05T13:58:48.157Z,10.47
2022-11-05T14:01:34.814Z,10.87
2022-11-05T14:04:02.299Z,11.23
2022-11-05T14:06:32.609Z,10.20
2022-11-05T14:09:03.762Z,10.33
2022-11-05T14:11:37.041Z,10.60
2022-11-05T14:14:06.901Z,11.17
2022-11-05T14:16:52.787Z,11.03
2022-11-05T14:19:19.167Z,11.77
2022-11-05T14:21:52.653Z,10.53
2022-11-05T14:24:42.694Z,10.77
2022-11-05T14:27:10.251Z,11.37
2022-11-05T14:29:42.443Z,10.80
2022-11-05T14:32:18.662Z,10.33
2022-11-05T14:34:53.455Z,10.17
2022-11-05T14:37:26.808Z,11.07
2022-11-05T14:39:55.007Z,9.43
2022-11-05T14:42:24.602Z,8.00
2022-11-05T14:45:20.104Z,9.67
2022-11-05T14:47:56.172Z,8.43
2022-11-05T14:50:31.261Z,8.03
2022-11-05T14:53:02.453Z,8.33
2022-11-05T14:55:46.880Z,8.47
2022-11-05T14:58:27.685Z,8.10
2022-11-05T15:00:55.118Z,8.03
2022-11-05T15:03:46.490Z,7.73
2022-11-05T15:06:28.844Z,8.03
2022-11-05T15:09:12.451Z,7.40
2022-11-05T15:11:44.453Z,7.60
2022-11-05T15:14:20.655Z,8.37
2022-11-05T15:16:54.571Z,7.27
2022-11-05T15:19:36.880Z,7.27
2022-11-05T15:22:12.424Z,7.77
2022-11-05T15:24:42.689Z,8.87
2022-11-05T15:27:20.838Z,8.27
2022-11-05T15:29:51.895Z,7.30
2022-11-05T15:32:22.855Z,7.53
2022-11-05T15:34:54.672Z,8.67
2022-11-05T15:37:26.927Z,8.67
2022-11-05T15:39:55.306Z,36.03
2022-11-05T15:42:26.924Z,9.90
2022-11-05T15:44:57.071Z,9.07
2022-11-05T15:47:34.026Z,8.50
2022-11-05T15:50:18.627Z,8.80
2022-11-05T15:52:50.339Z,6.70
2022-11-05T15:55:17.129Z,6.80
2022-11-05T15:57:59.253Z,6.77
2022-11-05T16:00:29.095Z,5.93
2022-11-05T16:03:00.547Z,5.53
2022-11-05T16:05:30.849Z,5.67
2022-11-05T16:07:58.945Z,5.90
2022-11-05T16:10:29.963Z,6.83
2022-11-05T16:12:56.804Z,6.03
2022-11-05T16:15:32.765Z,6.27
2022-11-05T16:18:00.268Z,6.57
2022-11-05T16:20:32.740Z,6.50
2022-11-05T16:23:23.549Z,6.87
2022-11-05T16:25:50.965Z,6.77
2022-11-05T16:28:29.413Z,6.70
2022-11-05T16:30:58.670Z,6.33
2022-11-05T16:33:27.601Z,6.70
2022-11-05T16:35:54.178Z,6.80
2022-11-05T16:38:20.920Z,8.00
2022-11-05T16:40:47.523Z,9.63
2022-11-05T16:43:20.631Z,9.37
2022-11-05T16:45:47.827Z,7.50
2022-11-05T16:48:15.760Z,6.20
2022-11-05T16:50:42.728Z,5.90
2022-11-05T16:53:09.440Z,5.87
2022-11-05T16:55:38.569Z,6.07
2022-11-05T16:58:07.034Z,5.67
2022-11-05T17:00:33.623Z,6.23
2022-11-05T17:03:00.334Z,13.43
2022-11-05T17:05:31.073Z,9.20
2022-11-05T17:07:57.849Z,9.97
2022-11-05T17:10:25.590Z,10.83
2022-11-05T17:12:52.794Z,11.40
2022-11-05T17:15:23.093Z,17.83
2022-11-05T17:17:50.135Z,20.30
2022-11-05T17:20:39.590Z,11.50
2022-11-05T17:23:08.661Z,8.30
2022-11-05T17:25:35.360Z,8.50
2022-11-05T17:28:02.112Z,8.13
2022-11-05T17:30:28.658Z,9.03
2022-11-05T17:32:55.398Z,7.13
2022-11-05T17:35:22.535Z,8.33
2022-11-05T17:37:49.931Z,7.23
2022-11-05T17:40:18.610Z,8.17
2022-11-05T17:42:45.654Z,8.60
2022-11-05T17:45:13.330Z,8.47
2022-11-05T17:47:40.813Z,8.47
2022-11-05T17:50:09.621Z,8.70
2022-11-05T17:52:36.284Z,8.83
2022-11-05T17:55:16.640Z,9.10
2022-11-05T17:57:48.380Z,9.07
2022-11-05T18:00:22.519Z,9.47
2022-11-05T18:02:51.879Z,8.07
2022-11-05T18:05:19.306Z,7.90
2022-11-05T18:07:46.915Z,7.33
2022-11-05T18:10:13.951Z,7.40
2022-11-05T18:12:41.162Z,7.67
2022-11-05T18:15:08.679Z,7.37
2022-11-05T18:17:35.577Z,8.30
2022-11-05T18:20:06.843Z,8.03
2022-11-05T18:22:33.375Z,9.40
2022-11-05T18:24:59.910Z,9.70
2022-11-05T18:27:27.710Z,11.27
2022-11-05T18:29:54.875Z,13.37
2022-11-05T18:32:21.694Z,12.73
2022-11-05T18:34:48.346Z,12.23
2022-11-05T18:37:15.502Z,13.07
2022-11-05T18:39:42.613Z,13.10
2022-11-05T18:42:09.909Z,14.00
2022-11-05T18:44:39.441Z,14.23
2022-11-05T18:47:06.839Z,14.43
2022-11-05T18:49:33.855Z,14.33
2022-11-05T18:52:00.596Z,15.77
2022-11-05T18:54:27.204Z,16.87
2022-11-05T18:56:54.127Z,16.00
2022-11-05T18:59:39.078Z,16.63
2022-11-05T19:02:08.252Z,19.30
2022-11-05T19:04:36.045Z,18.33
2022-11-05T19:07:05.567Z,22.03
2022-11-05T19:09:37.106Z,33.00
2022-11-05T19:12:04.505Z,34.73
2022-11-05T19:14:31.677Z,32.27
2022-11-05T19:16:59.462Z,29.40
2022-11-05T19:19:26.171Z,27.27
2022-11-05T19:21:52.753Z,28.20
2022-11-05T19:24:19.330Z,31.17
2022-11-05T19:26:46.716Z,31.80
2022-11-05T19:29:13.443Z,26.43
2022-11-05T19:31:40.042Z,25.10
2022-11-05T19:34:06.622Z,24.03
2022-11-05T19:36:33.573Z,23.80
2022-11-05T19:39:02.639Z,22.50
2022-11-05T19:41:29.307Z,23.33
2022-11-05T19:43:58.059Z,22.27
2022-11-05T19:46:25.522Z,25.97
2022-11-05T19:48:52.450Z,25.17
2022-11-05T19:51:25.056Z,27.70
2022-11-05T19:53:52.797Z,27.03
2022-11-05T19:56:25.056Z,30.60
2022-11-05T19:58:53.182Z,26.93
2022-11-05T20:01:21.916Z,26.60
2022-11-05T20:03:48.712Z,25.67
2022-11-05T20:06:28.614Z,24.57
2022-11-05T20:11:45.195Z,23.30
2022-11-05T20:14:11.892Z,21.73
2022-11-05T20:16:39.131Z,19.67
2022-11-05T20:19:11.509Z,22.07
2022-11-05T20:21:38.828Z,23.87
2022-11-05T20:24:05.970Z,26.30
2022-11-05T20:26:33.086Z,26.03
2022-11-05T20:29:00.002Z,27.13
2022-11-05T20:31:26.603Z,28.73
2022-11-05T20:33:53.660Z,30.77
2022-11-05T20:36:25.142Z,28.03
2022-11-05T20:38:58.114Z,25.97
2022-11-05T20:41:26.182Z,23.43
2022-11-05T20:43:52.737Z,20.77
2022-11-05T20:46:21.591Z,22.57
2022-11-05T20:48:48.288Z,22.27
2022-11-05T20:51:19.196Z,23.17
2022-11-05T20:53:46.377Z,21.33
2022-11-05T20:56:22.674Z,20.43
2022-11-05T20:58:50.015Z,22.30
2022-11-05T21:01:17.423Z,21.53
2022-11-05T21:03:45.420Z,19.87
2022-11-05T21:06:12.915Z,19.13
2022-11-05T21:08:39.972Z,18.23
2022-11-05T21:11:07.210Z,17.63
2022-11-05T21:13:34.053Z,16.73
2022-11-05T21:16:01.375Z,17.23
2022-11-05T21:18:33.211Z,16.00
2022-11-05T21:21:02.672Z,15.97
2022-11-05T21:23:29.250Z,22.70
2022-11-05T21:25:57.042Z,19.50
2022-11-05T21:28:23.755Z,16.53
2022-11-05T21:30:50.439Z,16.90
2022-11-05T21:33:18.435Z,17.40
2022-11-05T21:35:48.131Z,17.67
2022-11-05T21:38:16.739Z,17.57
2022-11-05T21:40:44.688Z,16.57
2022-11-05T21:43:11.808Z,16.83
2022-11-05T21:45:40.208Z,16.57
2022-11-05T21:48:08.251Z,17.30
2022-11-05T21:50:54.568Z,16.73
2022-11-05T21:53:39.655Z,17.23
2022-11-05T21:56:26.018Z,18.97
2022-11-05T21:59:11.015Z,21.10
2022-11-05T22:01:37.678Z,22.27
2022-11-05T22:04:04.435Z,21.47
2022-11-05T22:06:35.516Z,20.77
2022-11-05T22:09:02.007Z,20.13
2022-11-05T22:11:28.574Z,19.40
2022-11-05T22:13:55.225Z,18.93
2022-11-05T22:16:21.797Z,16.83
2022-11-05T22:18:48.301Z,16.07
2022-11-05T22:21:18.902Z,15.77
2022-11-05T22:23:45.613Z,17.53
2022-11-05T22:26:12.234Z,16.53
2022-11-05T22:28:38.831Z,27.57
2022-11-05T22:31:12.386Z,33.57
2022-11-05T22:33:39.015Z,33.47
2022-11-05T22:36:05.899Z,29.43
2022-11-05T22:38:32.460Z,24.77
2022-11-05T22:40:59.120Z,19.57
2022-11-05T22:43:25.700Z,17.13
2022-11-05T22:45:52.234Z,16.13
2022-11-05T22:48:18.826Z,15.90
2022-11-05T22:50:45.360Z,15.17
2022-11-05T22:53:11.915Z,14.17
2022-11-05T22:55:41.482Z,13.87
2022-11-05T22:58:08.110Z,13.77
2022-11-05T23:00:36.770Z,13.40
2022-11-05T23:03:03.493Z,14.07
2022-11-05T23:05:30.112Z,14.23
2022-11-05T23:08:15.413Z,15.80
2022-11-05T23:11:00.857Z,14.83
2022-11-05T23:13:27.343Z,14.90
2022-11-05T23:16:12.188Z,13.90
2022-11-05T23:18:56.895Z,12.67
2022-11-05T23:21:41.736Z,13.50
2022-11-05T23:24:08.586Z,16.17
2022-11-05T23:26:51.831Z,17.10
2022-11-05T23:29:26.868Z,19.10
2022-11-05T23:32:12.063Z,19.33
2022-11-05T23:34:39.099Z,19.37
2022-11-05T23:37:24.700Z,18.17
2022-11-05T23:39:51.275Z,15.90
2022-11-05T23:42:36.886Z,13.77
2022-11-05T23:45:23.636Z,13.50
2022-11-05T23:48:09.099Z,13.40
2022-11-05T23:50:39.785Z,13.20
2022-11-05T23:53:07.131Z,12.47
2022-11-05T23:55:33.894Z,11.77
2022-11-05T23:58:00.465Z,12.00
